sensor_id;sensor_type;location;lat;lon;timestamp;P1;durP1;ratioP1;P2;durP2;ratioP2
38132;SDS011;23948;43.252;26.572;2022-07-23T00:01:54;7.00;;;3.08;;
38132;SDS011;23948;43.252;26.572;2022-07-23T00:04:19;9.38;;;3.63;;
38132;SDS011;23948;43.252;26.572;2022-07-23T00:06:44;8.10;;;3.25;;
38132;SDS011;23948;43.252;26.572;2022-07-23T00:09:09;7.30;;;3.88;;
38132;SDS011;23948;43.252;26.572;2022-07-23T00:11:35;8.57;;;3.50;;
38132;SDS011;23948;43.252;26.572;2022-07-23T00:14:00;9.90;;;3.63;;
38132;SDS011;23948;43.252;26.572;2022-07-23T00:16:25;7.28;;;3.30;;
38132;SDS011;23948;43.252;26.572;2022-07-23T00:18:50;8.82;;;3.78;;
38132;SDS011;23948;43.252;26.572;2022-07-23T00:21:16;8.90;;;3.53;;
38132;SDS011;23948;43.252;26.572;2022-07-23T00:23:41;9.18;;;4.00;;
38132;SDS011;23948;43.252;26.572;2022-07-23T00:26:06;7.47;;;3.70;;
38132;SDS011;23948;43.252;26.572;2022-07-23T00:28:32;7.32;;;3.00;;
38132;SDS011;23948;43.252;26.572;2022-07-23T00:30:58;8.73;;;3.92;;
38132;SDS011;23948;43.252;26.572;2022-07-23T00:33:23;8.18;;;4.10;;
38132;SDS011;23948;43.252;26.572;2022-07-23T00:35:48;10.98;;;3.70;;
38132;SDS011;23948;43.252;26.572;2022-07-23T00:38:14;8.55;;;3.60;;
38132;SDS011;23948;43.252;26.572;2022-07-23T00:40:39;7.40;;;4.18;;
38132;SDS011;23948;43.252;26.572;2022-07-23T00:43:04;6.85;;;3.60;;
38132;SDS011;23948;43.252;26.572;2022-07-23T00:45:30;9.45;;;3.40;;
38132;SDS011;23948;43.252;26.572;2022-07-23T00:47:55;6.88;;;3.75;;
38132;SDS011;23948;43.252;26.572;2022-07-23T00:50:21;5.80;;;3.38;;
38132;SDS011;23948;43.252;26.572;2022-07-23T00:52:46;9.13;;;3.30;;
38132;SDS011;23948;43.252;26.572;2022-07-23T00:55:12;10.23;;;3.38;;
38132;SDS011;23948;43.252;26.572;2022-07-23T00:57:38;10.43;;;3.80;;
38132;SDS011;23948;43.252;26.572;2022-07-23T01:00:04;8.88;;;3.47;;
38132;SDS011;23948;43.252;26.572;2022-07-23T01:02:30;7.32;;;3.30;;
38132;SDS011;23948;43.252;26.572;2022-07-23T01:04:55;12.60;;;3.40;;
38132;SDS011;23948;43.252;26.572;2022-07-23T01:07:21;6.93;;;3.38;;
38132;SDS011;23948;43.252;26.572;2022-07-23T01:09:46;10.73;;;3.15;;
38132;SDS011;23948;43.252;26.572;2022-07-23T01:12:12;9.63;;;3.38;;
38132;SDS011;23948;43.252;26.572;2022-07-23T01:14:38;9.35;;;3.30;;
38132;SDS011;23948;43.252;26.572;2022-07-23T01:17:03;9.50;;;3.50;;
38132;SDS011;23948;43.252;26.572;2022-07-23T01:19:29;6.80;;;3.15;;
38132;SDS011;23948;43.252;26.572;2022-07-23T01:21:54;9.35;;;3.17;;
38132;SDS011;23948;43.252;26.572;2022-07-23T01:24:21;9.20;;;3.50;;
38132;SDS011;23948;43.252;26.572;2022-07-23T01:26:47;9.60;;;3.30;;
38132;SDS011;23948;43.252;26.572;2022-07-23T01:29:13;7.35;;;3.70;;
38132;SDS011;23948;43.252;26.572;2022-07-23T01:31:38;6.55;;;3.00;;
38132;SDS011;23948;43.252;26.572;2022-07-23T01:34:04;9.43;;;3.30;;
38132;SDS011;23948;43.252;26.572;2022-07-23T01:36:31;8.55;;;3.17;;
38132;SDS011;23948;43.252;26.572;2022-07-23T01:38:56;6.63;;;3.15;;
38132;SDS011;23948;43.252;26.572;2022-07-23T01:41:21;6.97;;;3.45;;
38132;SDS011;23948;43.252;26.572;2022-07-23T01:43:47;10.82;;;3.47;;
38132;SDS011;23948;43.252;26.572;2022-07-23T01:46:12;7.50;;;3.42;;
38132;SDS011;23948;43.252;26.572;2022-07-23T01:48:38;8.88;;;3.15;;
38132;SDS011;23948;43.252;26.572;2022-07-23T01:51:03;9.55;;;2.90;;
38132;SDS011;23948;43.252;26.572;2022-07-23T01:53:28;7.60;;;3.13;;
38132;SDS011;23948;43.252;26.572;2022-07-23T01:55:56;7.13;;;3.10;;
38132;SDS011;23948;43.252;26.572;2022-07-23T01:58:21;6.88;;;3.13;;
38132;SDS011;23948;43.252;26.572;2022-07-23T02:00:47;6.28;;;3.00;;
38132;SDS011;23948;43.252;26.572;2022-07-23T02:03:12;5.80;;;3.03;;
38132;SDS011;23948;43.252;26.572;2022-07-23T02:05:37;5.32;;;2.90;;
38132;SDS011;23948;43.252;26.572;2022-07-23T02:08:03;5.70;;;2.92;;
38132;SDS011;23948;43.252;26.572;2022-07-23T02:10:28;8.95;;;3.20;;
38132;SDS011;23948;43.252;26.572;2022-07-23T02:12:53;9.77;;;3.20;;
38132;SDS011;23948;43.252;26.572;2022-07-23T02:15:18;5.63;;;2.92;;
38132;SDS011;23948;43.252;26.572;2022-07-23T02:17:44;10.88;;;3.28;;
38132;SDS011;23948;43.252;26.572;2022-07-23T02:20:09;7.32;;;3.00;;
38132;SDS011;23948;43.252;26.572;2022-07-23T02:22:35;7.78;;;3.10;;
38132;SDS011;23948;43.252;26.572;2022-07-23T02:25:01;6.15;;;3.15;;
38132;SDS011;23948;43.252;26.572;2022-07-23T02:27:26;10.82;;;3.10;;
38132;SDS011;23948;43.252;26.572;2022-07-23T02:29:53;8.30;;;3.25;;
38132;SDS011;23948;43.252;26.572;2022-07-23T02:32:18;5.72;;;3.30;;
38132;SDS011;23948;43.252;26.572;2022-07-23T02:34:43;9.13;;;2.92;;
38132;SDS011;23948;43.252;26.572;2022-07-23T02:37:09;8.13;;;3.08;;
38132;SDS011;23948;43.252;26.572;2022-07-23T02:39:35;6.57;;;3.22;;
38132;SDS011;23948;43.252;26.572;2022-07-23T02:42:00;8.90;;;3.92;;
38132;SDS011;23948;43.252;26.572;2022-07-23T02:44:25;8.95;;;3.53;;
38132;SDS011;23948;43.252;26.572;2022-07-23T02:46:51;6.85;;;3.35;;
38132;SDS011;23948;43.252;26.572;2022-07-23T02:49:16;6.55;;;3.50;;
38132;SDS011;23948;43.252;26.572;2022-07-23T02:51:41;8.55;;;3.70;;
38132;SDS011;23948;43.252;26.572;2022-07-23T02:54:07;7.15;;;3.70;;
38132;SDS011;23948;43.252;26.572;2022-07-23T02:56:32;7.85;;;3.50;;
38132;SDS011;23948;43.252;26.572;2022-07-23T02:58:57;7.47;;;3.63;;
38132;SDS011;23948;43.252;26.572;2022-07-23T03:01:23;6.15;;;3.08;;
38132;SDS011;23948;43.252;26.572;2022-07-23T03:03:48;7.70;;;3.50;;
38132;SDS011;23948;43.252;26.572;2022-07-23T03:06:13;9.05;;;3.58;;
38132;SDS011;23948;43.252;26.572;2022-07-23T03:08:39;7.57;;;3.45;;
38132;SDS011;23948;43.252;26.572;2022-07-23T03:11:04;10.45;;;3.67;;
38132;SDS011;23948;43.252;26.572;2022-07-23T03:13:31;10.88;;;3.97;;
38132;SDS011;23948;43.252;26.572;2022-07-23T03:15:57;10.13;;;3.40;;
38132;SDS011;23948;43.252;26.572;2022-07-23T03:18:22;7.57;;;3.47;;
38132;SDS011;23948;43.252;26.572;2022-07-23T03:20:47;11.13;;;4.22;;
38132;SDS011;23948;43.252;26.572;2022-07-23T03:23:13;10.18;;;4.40;;
38132;SDS011;23948;43.252;26.572;2022-07-23T03:25:38;12.90;;;4.55;;
38132;SDS011;23948;43.252;26.572;2022-07-23T03:28:03;15.93;;;8.93;;
38132;SDS011;23948;43.252;26.572;2022-07-23T03:30:29;21.13;;;13.25;;
38132;SDS011;23948;43.252;26.572;2022-07-23T03:32:54;23.48;;;16.17;;
38132;SDS011;23948;43.252;26.572;2022-07-23T03:35:19;18.27;;;10.80;;
38132;SDS011;23948;43.252;26.572;2022-07-23T03:37:44;15.00;;;8.50;;
38132;SDS011;23948;43.252;26.572;2022-07-23T03:40:10;15.35;;;8.48;;
38132;SDS011;23948;43.252;26.572;2022-07-23T03:42:35;14.27;;;7.78;;
38132;SDS011;23948;43.252;26.572;2022-07-23T03:45:02;11.25;;;5.82;;
38132;SDS011;23948;43.252;26.572;2022-07-23T03:47:27;12.95;;;5.25;;
38132;SDS011;23948;43.252;26.572;2022-07-23T03:49:53;7.82;;;4.60;;
38132;SDS011;23948;43.252;26.572;2022-07-23T03:52:18;7.72;;;4.45;;
38132;SDS011;23948;43.252;26.572;2022-07-23T03:54:43;10.20;;;4.30;;
38132;SDS011;23948;43.252;26.572;2022-07-23T03:57:08;7.72;;;4.20;;
38132;SDS011;23948;43.252;26.572;2022-07-23T03:59:34;6.25;;;3.60;;
38132;SDS011;23948;43.252;26.572;2022-07-23T04:01:59;11.02;;;3.88;;
38132;SDS011;23948;43.252;26.572;2022-07-23T04:04:24;11.88;;;4.20;;
38132;SDS011;23948;43.252;26.572;2022-07-23T04:06:50;10.55;;;3.95;;
38132;SDS011;23948;43.252;26.572;2022-07-23T04:09:15;7.85;;;3.70;;
38132;SDS011;23948;43.252;26.572;2022-07-23T04:11:40;10.05;;;4.20;;
38132;SDS011;23948;43.252;26.572;2022-07-23T04:14:05;7.85;;;3.75;;
38132;SDS011;23948;43.252;26.572;2022-07-23T04:16:31;9.35;;;3.85;;
38132;SDS011;23948;43.252;26.572;2022-07-23T04:18:56;11.93;;;3.75;;
38132;SDS011;23948;43.252;26.572;2022-07-23T04:21:22;8.15;;;3.97;;
38132;SDS011;23948;43.252;26.572;2022-07-23T04:23:47;11.63;;;3.95;;
38132;SDS011;23948;43.252;26.572;2022-07-23T04:26:13;8.02;;;4.10;;
38132;SDS011;23948;43.252;26.572;2022-07-23T04:28:38;10.40;;;4.28;;
38132;SDS011;23948;43.252;26.572;2022-07-23T04:31:03;14.18;;;4.20;;
38132;SDS011;23948;43.252;26.572;2022-07-23T04:33:29;13.07;;;6.18;;
38132;SDS011;23948;43.252;26.572;2022-07-23T04:35:54;10.95;;;4.57;;
38132;SDS011;23948;43.252;26.572;2022-07-23T04:38:19;13.50;;;4.53;;
38132;SDS011;23948;43.252;26.572;2022-07-23T04:40:45;10.60;;;5.00;;
38132;SDS011;23948;43.252;26.572;2022-07-23T04:43:10;10.35;;;4.82;;
38132;SDS011;23948;43.252;26.572;2022-07-23T04:45:35;11.00;;;4.88;;
38132;SDS011;23948;43.252;26.572;2022-07-23T04:48:00;12.40;;;5.32;;
38132;SDS011;23948;43.252;26.572;2022-07-23T04:50:26;14.85;;;5.93;;
38132;SDS011;23948;43.252;26.572;2022-07-23T04:52:51;11.85;;;5.60;;
38132;SDS011;23948;43.252;26.572;2022-07-23T04:55:17;12.93;;;5.20;;
38132;SDS011;23948;43.252;26.572;2022-07-23T04:57:42;12.23;;;5.50;;
38132;SDS011;23948;43.252;26.572;2022-07-23T05:00:07;9.88;;;4.32;;
38132;SDS011;23948;43.252;26.572;2022-07-23T05:02:33;12.48;;;5.10;;
38132;SDS011;23948;43.252;26.572;2022-07-23T05:04:58;11.77;;;5.22;;
38132;SDS011;23948;43.252;26.572;2022-07-23T05:07:23;14.85;;;5.45;;
38132;SDS011;23948;43.252;26.572;2022-07-23T05:09:49;16.67;;;4.85;;
38132;SDS011;23948;43.252;26.572;2022-07-23T05:12:14;14.18;;;5.28;;
38132;SDS011;23948;43.252;26.572;2022-07-23T05:14:39;11.93;;;5.00;;
38132;SDS011;23948;43.252;26.572;2022-07-23T05:17:05;16.40;;;5.85;;
38132;SDS011;23948;43.252;26.572;2022-07-23T05:19:30;13.75;;;5.43;;
38132;SDS011;23948;43.252;26.572;2022-07-23T05:21:55;18.25;;;5.75;;
38132;SDS011;23948;43.252;26.572;2022-07-23T05:24:21;18.90;;;5.57;;
38132;SDS011;23948;43.252;26.572;2022-07-23T05:26:46;16.50;;;5.93;;
38132;SDS011;23948;43.252;26.572;2022-07-23T05:29:11;13.18;;;5.50;;
38132;SDS011;23948;43.252;26.572;2022-07-23T05:31:37;13.82;;;5.68;;
38132;SDS011;23948;43.252;26.572;2022-07-23T05:34:02;17.42;;;6.18;;
38132;SDS011;23948;43.252;26.572;2022-07-23T05:36:27;14.80;;;5.90;;
38132;SDS011;23948;43.252;26.572;2022-07-23T05:38:53;23.98;;;7.20;;
38132;SDS011;23948;43.252;26.572;2022-07-23T05:41:18;20.55;;;7.40;;
38132;SDS011;23948;43.252;26.572;2022-07-23T05:43:46;16.08;;;6.90;;
38132;SDS011;23948;43.252;26.572;2022-07-23T05:46:11;23.83;;;8.32;;
38132;SDS011;23948;43.252;26.572;2022-07-23T05:48:36;15.55;;;7.75;;
38132;SDS011;23948;43.252;26.572;2022-07-23T05:51:01;14.93;;;8.23;;
38132;SDS011;23948;43.252;26.572;2022-07-23T05:53:31;24.75;;;10.00;;
38132;SDS011;23948;43.252;26.572;2022-07-23T05:55:56;17.98;;;9.25;;
38132;SDS011;23948;43.252;26.572;2022-07-23T05:58:21;18.30;;;9.15;;
38132;SDS011;23948;43.252;26.572;2022-07-23T06:00:47;28.00;;;11.40;;
38132;SDS011;23948;43.252;26.572;2022-07-23T06:03:12;24.80;;;11.43;;
38132;SDS011;23948;43.252;26.572;2022-07-23T06:05:37;19.08;;;11.10;;
38132;SDS011;23948;43.252;26.572;2022-07-23T06:08:03;21.58;;;11.07;;
38132;SDS011;23948;43.252;26.572;2022-07-23T06:10:28;20.88;;;11.52;;
38132;SDS011;23948;43.252;26.572;2022-07-23T06:12:53;23.17;;;11.00;;
38132;SDS011;23948;43.252;26.572;2022-07-23T06:15:19;19.40;;;11.50;;
38132;SDS011;23948;43.252;26.572;2022-07-23T06:17:44;23.30;;;9.93;;
38132;SDS011;23948;43.252;26.572;2022-07-23T06:20:09;15.98;;;9.32;;
38132;SDS011;23948;43.252;26.572;2022-07-23T06:22:35;16.35;;;8.55;;
38132;SDS011;23948;43.252;26.572;2022-07-23T06:25:00;17.20;;;9.45;;
38132;SDS011;23948;43.252;26.572;2022-07-23T06:27:26;13.70;;;8.52;;
38132;SDS011;23948;43.252;26.572;2022-07-23T06:29:51;19.88;;;8.75;;
38132;SDS011;23948;43.252;26.572;2022-07-23T06:32:17;13.25;;;8.10;;
38132;SDS011;23948;43.252;26.572;2022-07-23T06:34:42;21.45;;;8.95;;
38132;SDS011;23948;43.252;26.572;2022-07-23T06:37:07;15.95;;;7.72;;
38132;SDS011;23948;43.252;26.572;2022-07-23T06:39:32;13.18;;;7.70;;
38132;SDS011;23948;43.252;26.572;2022-07-23T06:41:58;12.77;;;6.95;;
38132;SDS011;23948;43.252;26.572;2022-07-23T06:44:23;15.82;;;7.55;;
38132;SDS011;23948;43.252;26.572;2022-07-23T06:46:49;13.70;;;7.68;;
38132;SDS011;23948;43.252;26.572;2022-07-23T06:49:14;13.50;;;6.68;;
38132;SDS011;23948;43.252;26.572;2022-07-23T06:51:40;12.98;;;6.57;;
38132;SDS011;23948;43.252;26.572;2022-07-23T06:54:05;13.23;;;6.50;;
38132;SDS011;23948;43.252;26.572;2022-07-23T06:56:30;19.95;;;6.22;;
38132;SDS011;23948;43.252;26.572;2022-07-23T06:58:56;13.15;;;6.13;;
38132;SDS011;23948;43.252;26.572;2022-07-23T07:01:21;13.02;;;5.15;;
38132;SDS011;23948;43.252;26.572;2022-07-23T07:03:47;10.32;;;3.95;;
38132;SDS011;23948;43.252;26.572;2022-07-23T07:06:12;15.60;;;5.20;;
38132;SDS011;23948;43.252;26.572;2022-07-23T07:08:38;10.73;;;4.70;;
38132;SDS011;23948;43.252;26.572;2022-07-23T07:11:03;9.98;;;4.43;;
38132;SDS011;23948;43.252;26.572;2022-07-23T07:13:28;9.90;;;4.60;;
38132;SDS011;23948;43.252;26.572;2022-07-23T07:15:54;11.73;;;4.47;;
38132;SDS011;23948;43.252;26.572;2022-07-23T07:18:19;8.47;;;3.93;;
38132;SDS011;23948;43.252;26.572;2022-07-23T07:20:44;14.30;;;4.70;;
38132;SDS011;23948;43.252;26.572;2022-07-23T07:23:09;12.55;;;4.30;;
38132;SDS011;23948;43.252;26.572;2022-07-23T07:25:35;14.32;;;4.20;;
38132;SDS011;23948;43.252;26.572;2022-07-23T07:28:00;10.40;;;4.50;;
38132;SDS011;23948;43.252;26.572;2022-07-23T07:30:25;8.37;;;3.50;;
38132;SDS011;23948;43.252;26.572;2022-07-23T07:32:51;7.80;;;3.60;;
38132;SDS011;23948;43.252;26.572;2022-07-23T07:35:16;9.40;;;3.60;;
38132;SDS011;23948;43.252;26.572;2022-07-23T07:37:41;6.10;;;3.40;;
38132;SDS011;23948;43.252;26.572;2022-07-23T07:40:07;7.83;;;3.53;;
38132;SDS011;23948;43.252;26.572;2022-07-23T07:42:32;11.73;;;3.80;;
38132;SDS011;23948;43.252;26.572;2022-07-23T07:44:58;9.17;;;3.27;;
38132;SDS011;23948;43.252;26.572;2022-07-23T07:47:23;7.93;;;3.28;;
38132;SDS011;23948;43.252;26.572;2022-07-23T07:49:49;8.85;;;3.28;;
38132;SDS011;23948;43.252;26.572;2022-07-23T07:52:19;9.20;;;3.10;;
38132;SDS011;23948;43.252;26.572;2022-07-23T07:54:45;12.13;;;3.63;;
38132;SDS011;23948;43.252;26.572;2022-07-23T07:57:10;8.77;;;3.35;;
38132;SDS011;23948;43.252;26.572;2022-07-23T07:59:35;11.05;;;3.15;;
38132;SDS011;23948;43.252;26.572;2022-07-23T08:02:01;8.63;;;3.10;;
38132;SDS011;23948;43.252;26.572;2022-07-23T08:04:26;10.47;;;3.30;;
38132;SDS011;23948;43.252;26.572;2022-07-23T08:06:51;10.43;;;3.20;;
38132;SDS011;23948;43.252;26.572;2022-07-23T08:09:17;9.48;;;3.40;;
38132;SDS011;23948;43.252;26.572;2022-07-23T08:11:42;6.53;;;2.60;;
38132;SDS011;23948;43.252;26.572;2022-07-23T08:14:07;6.22;;;2.70;;
38132;SDS011;23948;43.252;26.572;2022-07-23T08:16:34;5.82;;;2.60;;
38132;SDS011;23948;43.252;26.572;2022-07-23T08:18:59;8.30;;;3.07;;
38132;SDS011;23948;43.252;26.572;2022-07-23T08:21:27;6.95;;;3.00;;
38132;SDS011;23948;43.252;26.572;2022-07-23T08:23:53;11.70;;;2.77;;
38132;SDS011;23948;43.252;26.572;2022-07-23T08:26:18;8.38;;;2.58;;
38132;SDS011;23948;43.252;26.572;2022-07-23T08:28:43;6.80;;;2.80;;
38132;SDS011;23948;43.252;26.572;2022-07-23T08:31:09;8.48;;;2.83;;
38132;SDS011;23948;43.252;26.572;2022-07-23T08:33:36;6.38;;;2.70;;
38132;SDS011;23948;43.252;26.572;2022-07-23T08:36:05;6.20;;;3.00;;
38132;SDS011;23948;43.252;26.572;2022-07-23T08:38:30;9.75;;;2.60;;
38132;SDS011;23948;43.252;26.572;2022-07-23T08:40:56;7.68;;;3.03;;
38132;SDS011;23948;43.252;26.572;2022-07-23T08:43:25;8.38;;;2.90;;
38132;SDS011;23948;43.252;26.572;2022-07-23T08:45:51;5.47;;;2.40;;
38132;SDS011;23948;43.252;26.572;2022-07-23T08:48:18;8.52;;;2.72;;
38132;SDS011;23948;43.252;26.572;2022-07-23T08:50:45;10.40;;;2.63;;
38132;SDS011;23948;43.252;26.572;2022-07-23T08:53:11;9.55;;;3.42;;
38132;SDS011;23948;43.252;26.572;2022-07-23T08:55:36;5.63;;;2.50;;
38132;SDS011;23948;43.252;26.572;2022-07-23T08:58:01;5.35;;;2.30;;
38132;SDS011;23948;43.252;26.572;2022-07-23T09:00:27;8.27;;;3.15;;
38132;SDS011;23948;43.252;26.572;2022-07-23T09:02:52;8.60;;;2.88;;
38132;SDS011;23948;43.252;26.572;2022-07-23T09:05:18;8.43;;;2.70;;
38132;SDS011;23948;43.252;26.572;2022-07-23T09:10:28;10.05;;;2.53;;
38132;SDS011;23948;43.252;26.572;2022-07-23T09:12:53;7.78;;;2.70;;
38132;SDS011;23948;43.252;26.572;2022-07-23T09:15:18;7.53;;;2.57;;
38132;SDS011;23948;43.252;26.572;2022-07-23T09:17:44;7.87;;;2.70;;
38132;SDS011;23948;43.252;26.572;2022-07-23T09:20:10;10.30;;;2.60;;
38132;SDS011;23948;43.252;26.572;2022-07-23T09:22:36;7.72;;;2.72;;
38132;SDS011;23948;43.252;26.572;2022-07-23T09:30:12;8.85;;;3.03;;
38132;SDS011;23948;43.252;26.572;2022-07-23T09:32:41;7.57;;;2.90;;
38132;SDS011;23948;43.252;26.572;2022-07-23T09:35:09;11.15;;;2.78;;
38132;SDS011;23948;43.252;26.572;2022-07-23T09:38:00;8.35;;;2.88;;
38132;SDS011;23948;43.252;26.572;2022-07-23T09:40:28;7.22;;;2.50;;
38132;SDS011;23948;43.252;26.572;2022-07-23T09:42:56;8.80;;;2.58;;
38132;SDS011;23948;43.252;26.572;2022-07-23T09:45:21;8.90;;;2.90;;
38132;SDS011;23948;43.252;26.572;2022-07-23T09:47:47;8.57;;;2.63;;
38132;SDS011;23948;43.252;26.572;2022-07-23T09:50:13;6.45;;;2.80;;
38132;SDS011;23948;43.252;26.572;2022-07-23T09:52:49;6.07;;;2.90;;
38132;SDS011;23948;43.252;26.572;2022-07-23T09:55:18;8.85;;;2.80;;
38132;SDS011;23948;43.252;26.572;2022-07-23T10:00:15;10.43;;;2.70;;
38132;SDS011;23948;43.252;26.572;2022-07-23T10:02:41;7.60;;;2.80;;
38132;SDS011;23948;43.252;26.572;2022-07-23T10:05:06;8.02;;;2.80;;
38132;SDS011;23948;43.252;26.572;2022-07-23T10:07:33;6.43;;;3.30;;
38132;SDS011;23948;43.252;26.572;2022-07-23T10:10:00;11.27;;;3.22;;
38132;SDS011;23948;43.252;26.572;2022-07-23T10:12:25;8.07;;;2.80;;
38132;SDS011;23948;43.252;26.572;2022-07-23T10:14:59;7.25;;;2.72;;
38132;SDS011;23948;43.252;26.572;2022-07-23T10:17:25;11.68;;;3.25;;
38132;SDS011;23948;43.252;26.572;2022-07-23T10:19:52;7.18;;;2.60;;
38132;SDS011;23948;43.252;26.572;2022-07-23T10:22:22;11.23;;;3.13;;
38132;SDS011;23948;43.252;26.572;2022-07-23T10:27:22;9.38;;;3.13;;
38132;SDS011;23948;43.252;26.572;2022-07-23T10:29:52;7.15;;;2.88;;
38132;SDS011;23948;43.252;26.572;2022-07-23T10:34:45;8.73;;;3.13;;
38132;SDS011;23948;43.252;26.572;2022-07-23T10:37:30;5.95;;;3.10;;
38132;SDS011;23948;43.252;26.572;2022-07-23T10:40:13;6.53;;;2.50;;
38132;SDS011;23948;43.252;26.572;2022-07-23T10:42:39;5.45;;;2.88;;
38132;SDS011;23948;43.252;26.572;2022-07-23T10:45:51;5.65;;;2.63;;
38132;SDS011;23948;43.252;26.572;2022-07-23T10:47:51;7.80;;;3.30;;
38132;SDS011;23948;43.252;26.572;2022-07-23T10:53:07;7.22;;;2.90;;
38132;SDS011;23948;43.252;26.572;2022-07-23T10:58:00;8.50;;;3.20;;
38132;SDS011;23948;43.252;26.572;2022-07-23T11:00:29;11.05;;;3.30;;
38132;SDS011;23948;43.252;26.572;2022-07-23T11:02:56;5.43;;;2.92;;
38132;SDS011;23948;43.252;26.572;2022-07-23T11:05:22;10.27;;;2.95;;
38132;SDS011;23948;43.252;26.572;2022-07-23T11:10:35;8.63;;;3.08;;
38132;SDS011;23948;43.252;26.572;2022-07-23T11:16:27;9.20;;;3.25;;
38132;SDS011;23948;43.252;26.572;2022-07-23T11:24:07;6.88;;;3.38;;
38132;SDS011;23948;43.252;26.572;2022-07-23T11:31:53;8.15;;;3.08;;
38132;SDS011;23948;43.252;26.572;2022-07-23T11:37:03;9.13;;;2.80;;
38132;SDS011;23948;43.252;26.572;2022-07-23T11:39:29;9.80;;;3.30;;
38132;SDS011;23948;43.252;26.572;2022-07-23T11:41:55;6.55;;;3.00;;
38132;SDS011;23948;43.252;26.572;2022-07-23T11:44:27;8.65;;;3.05;;
38132;SDS011;23948;43.252;26.572;2022-07-23T11:46:57;8.23;;;3.10;;
38132;SDS011;23948;43.252;26.572;2022-07-23T11:49:23;5.88;;;2.58;;
38132;SDS011;23948;43.252;26.572;2022-07-23T11:52:01;9.18;;;3.40;;
38132;SDS011;23948;43.252;26.572;2022-07-23T11:54:27;6.97;;;3.33;;
38132;SDS011;23948;43.252;26.572;2022-07-23T11:56:59;7.07;;;2.72;;
38132;SDS011;23948;43.252;26.572;2022-07-23T11:59:34;9.30;;;3.10;;
38132;SDS011;23948;43.252;26.572;2022-07-23T12:02:01;7.78;;;2.95;;
38132;SDS011;23948;43.252;26.572;2022-07-23T12:04:40;6.45;;;3.22;;
38132;SDS011;23948;43.252;26.572;2022-07-23T12:09:50;7.03;;;2.75;;
38132;SDS011;23948;43.252;26.572;2022-07-23T12:12:15;7.13;;;2.95;;
38132;SDS011;23948;43.252;26.572;2022-07-23T12:14:54;8.68;;;3.20;;
38132;SDS011;23948;43.252;26.572;2022-07-23T12:17:20;9.52;;;3.05;;
38132;SDS011;23948;43.252;26.572;2022-07-23T12:19:49;6.65;;;3.05;;
38132;SDS011;23948;43.252;26.572;2022-07-23T12:22:15;9.13;;;3.00;;
38132;SDS011;23948;43.252;26.572;2022-07-23T12:24:53;7.00;;;3.05;;
38132;SDS011;23948;43.252;26.572;2022-07-23T12:27:22;6.13;;;3.22;;
38132;SDS011;23948;43.252;26.572;2022-07-23T12:29:48;8.65;;;3.30;;
38132;SDS011;23948;43.252;26.572;2022-07-23T12:32:25;17.00;;;3.15;;
38132;SDS011;23948;43.252;26.572;2022-07-23T12:35:01;7.97;;;2.97;;
38132;SDS011;23948;43.252;26.572;2022-07-23T12:37:28;7.18;;;3.10;;
38132;SDS011;23948;43.252;26.572;2022-07-23T12:39:54;6.50;;;3.30;;
38132;SDS011;23948;43.252;26.572;2022-07-23T12:42:19;8.95;;;3.30;;
38132;SDS011;23948;43.252;26.572;2022-07-23T12:47:28;5.75;;;2.90;;
38132;SDS011;23948;43.252;26.572;2022-07-23T12:49:56;8.43;;;3.07;;
38132;SDS011;23948;43.252;26.572;2022-07-23T12:52:21;10.63;;;3.97;;
38132;SDS011;23948;43.252;26.572;2022-07-23T12:54:47;8.75;;;3.00;;
38132;SDS011;23948;43.252;26.572;2022-07-23T12:57:12;6.13;;;3.22;;
38132;SDS011;23948;43.252;26.572;2022-07-23T12:59:38;10.20;;;3.33;;
38132;SDS011;23948;43.252;26.572;2022-07-23T13:02:03;11.50;;;3.22;;
38132;SDS011;23948;43.252;26.572;2022-07-23T13:04:29;6.72;;;2.88;;
38132;SDS011;23948;43.252;26.572;2022-07-23T13:06:57;5.32;;;2.58;;
38132;SDS011;23948;43.252;26.572;2022-07-23T13:09:27;7.38;;;3.55;;
38132;SDS011;23948;43.252;26.572;2022-07-23T13:11:53;10.57;;;3.25;;
38132;SDS011;23948;43.252;26.572;2022-07-23T13:14:25;7.25;;;3.00;;
38132;SDS011;23948;43.252;26.572;2022-07-23T13:16:53;9.95;;;3.13;;
38132;SDS011;23948;43.252;26.572;2022-07-23T13:19:19;9.05;;;3.85;;
38132;SDS011;23948;43.252;26.572;2022-07-23T13:21:47;7.55;;;3.03;;
38132;SDS011;23948;43.252;26.572;2022-07-23T13:24:12;6.82;;;3.40;;
38132;SDS011;23948;43.252;26.572;2022-07-23T13:26:38;8.68;;;3.10;;
38132;SDS011;23948;43.252;26.572;2022-07-23T13:29:04;11.68;;;3.35;;
38132;SDS011;23948;43.252;26.572;2022-07-23T13:31:29;7.75;;;3.00;;
38132;SDS011;23948;43.252;26.572;2022-07-23T13:33:55;6.25;;;2.85;;
38132;SDS011;23948;43.252;26.572;2022-07-23T13:36:20;6.55;;;2.80;;
38132;SDS011;23948;43.252;26.572;2022-07-23T13:38:45;8.55;;;3.08;;
38132;SDS011;23948;43.252;26.572;2022-07-23T13:41:11;7.88;;;2.80;;
38132;SDS011;23948;43.252;26.572;2022-07-23T13:43:36;8.88;;;3.22;;
38132;SDS011;23948;43.252;26.572;2022-07-23T13:46:01;9.18;;;2.97;;
38132;SDS011;23948;43.252;26.572;2022-07-23T13:48:27;8.25;;;3.42;;
38132;SDS011;23948;43.252;26.572;2022-07-23T13:50:54;8.60;;;3.17;;
38132;SDS011;23948;43.252;26.572;2022-07-23T13:53:21;8.02;;;3.20;;
38132;SDS011;23948;43.252;26.572;2022-07-23T13:55:47;8.07;;;3.20;;
38132;SDS011;23948;43.252;26.572;2022-07-23T13:58:13;9.18;;;2.85;;
38132;SDS011;23948;43.252;26.572;2022-07-23T14:00:41;8.77;;;3.30;;
38132;SDS011;23948;43.252;26.572;2022-07-23T14:03:07;6.93;;;2.88;;
38132;SDS011;23948;43.252;26.572;2022-07-23T14:05:33;6.78;;;3.28;;
38132;SDS011;23948;43.252;26.572;2022-07-23T14:07:58;10.67;;;3.40;;
38132;SDS011;23948;43.252;26.572;2022-07-23T14:10:23;8.77;;;3.10;;
38132;SDS011;23948;43.252;26.572;2022-07-23T14:12:50;8.25;;;3.53;;
38132;SDS011;23948;43.252;26.572;2022-07-23T14:15:16;8.90;;;3.97;;
38132;SDS011;23948;43.252;26.572;2022-07-23T14:17:42;9.82;;;3.70;;
38132;SDS011;23948;43.252;26.572;2022-07-23T14:20:08;11.70;;;3.25;;
38132;SDS011;23948;43.252;26.572;2022-07-23T14:22:34;5.47;;;3.10;;
38132;SDS011;23948;43.252;26.572;2022-07-23T14:24:59;7.63;;;3.22;;
38132;SDS011;23948;43.252;26.572;2022-07-23T14:27:25;7.25;;;3.33;;
38132;SDS011;23948;43.252;26.572;2022-07-23T14:29:53;11.70;;;3.72;;
38132;SDS011;23948;43.252;26.572;2022-07-23T14:32:18;6.72;;;3.22;;
38132;SDS011;23948;43.252;26.572;2022-07-23T14:34:44;9.15;;;3.40;;
38132;SDS011;23948;43.252;26.572;2022-07-23T14:37:09;8.63;;;3.05;;
38132;SDS011;23948;43.252;26.572;2022-07-23T14:39:36;9.05;;;3.30;;
38132;SDS011;23948;43.252;26.572;2022-07-23T14:42:01;9.93;;;3.10;;
38132;SDS011;23948;43.252;26.572;2022-07-23T14:44:27;8.63;;;4.15;;
38132;SDS011;23948;43.252;26.572;2022-07-23T14:46:52;9.30;;;3.47;;
38132;SDS011;23948;43.252;26.572;2022-07-23T14:49:18;10.75;;;3.42;;
38132;SDS011;23948;43.252;26.572;2022-07-23T14:51:43;11.70;;;3.55;;
38132;SDS011;23948;43.252;26.572;2022-07-23T14:54:09;10.02;;;3.22;;
38132;SDS011;23948;43.252;26.572;2022-07-23T14:56:35;9.20;;;3.30;;
38132;SDS011;23948;43.252;26.572;2022-07-23T14:59:01;14.10;;;3.38;;
38132;SDS011;23948;43.252;26.572;2022-07-23T15:01:27;7.03;;;3.00;;
38132;SDS011;23948;43.252;26.572;2022-07-23T15:03:52;6.90;;;3.10;;
38132;SDS011;23948;43.252;26.572;2022-07-23T15:06:17;9.45;;;3.88;;
38132;SDS011;23948;43.252;26.572;2022-07-23T15:08:43;7.97;;;3.40;;